• Join FlightAware (Why Join?)
  • Login
  • US Flag 
07:33AM EDT


 

Airport Tracker/Info


-or-


 

Live Flight TrackerFlight Track Log ✈ UAL335 ✈ 20-Jun-2013 ✈ KIAH - KBOS

Flight Track Log - Related Links

Times and Time Zones

All times are in EDT time to prevent confusion due to time zone crossing. See the UAL335 flight status page for this flight to view local times or setup timezone preferences in your user account.

Time Position Orientation Groundspeed Altitude Reporting Facility
EDT Latitude Longitude Course Direction KTS MPH feet Rate Location/Type
10:07AM 29.9781 -95.2933 28° Northeast 172 198 900  Level Houston Center
10:08AM 30.0217 -95.2639 30° Northeast 244 281 2,100 1,860 Climbing Houston Center
10:09AM 30.1072 -95.2367 15° North 283 326 5,000 2,640 Climbing Houston Center
10:10AM 30.4544 -95.1374 27° Northeast  Level FlightAware Approximate
10:11AM 30.5672 -95.0774 30° Northeast  Level FlightAware Approximate
10:11AM 30.1867 -95.2100 16° North 291 335 8,100  Level Houston Center
10:12AM 30.6751 -95.0031 28° Northeast  Level FlightAware Approximate
10:12AM 30.2742 -95.1800 16° North 325 374 10,000  Level Houston Center
10:13AM 30.7859 -94.9338 28° Northeast  Level FlightAware Approximate
10:13AM 30.3897 -95.1414 16° North 363 418 11,700  Level Houston Center
10:14AM 30.4992 -95.1036 17° North 388 447 14,200 2,160 Climbing Houston Center
10:15AM 30.6064 -95.0661 17° North 396 456 16,200 1,740 Climbing Houston Center
10:16AM 30.7067 -95.0019 29° Northeast 412 474 17,800 1,320 Climbing Houston Center
10:17AM 30.8078 -94.9383 28° Northeast 412 474 19,000 1,440 Climbing Houston Center
10:18AM 30.9347 -94.8606 28° Northeast 426 490 20,800 1,500 Climbing Houston Center
10:19AM 31.0406 -94.7933 29° Northeast 437 503 22,100 1,200 Climbing Houston Center
10:20AM 31.1481 -94.7258 28° Northeast 453 521 23,400 960 Climbing Houston Center
10:21AM 31.2517 -94.6536 31° Northeast 457 526 24,200 960 Climbing Houston Center
10:22AM 31.3828 -94.5647 30° Northeast 460 529 25,400 960 Climbing Houston Center
10:23AM 31.4939 -94.4881 30° Northeast 464 534 26,300 720 Climbing Houston Center
10:24AM 31.6053 -94.4108 31° Northeast 464 534 27,000 600 Climbing Houston Center
10:25AM 31.7189 -94.3322 30° Northeast 471 542 27,600 600 Climbing Houston Center
10:26AM 31.8344 -94.2517 31° Northeast 479 551 28,300 660 Climbing Houston Center
10:27AM 31.9736 -94.1544 31° Northeast 483 556 29,000 600 Climbing Houston Center
10:28AM 32.0881 -94.0742 31° Northeast 480 552 29,600 480 Climbing Houston Center
10:29AM 32.2050 -93.9928 30° Northeast 485 558 30,100 480 Climbing Houston Center
10:30AM 32.3225 -93.9069 32° Northeast 492 566 30,700 600 Climbing Houston Center
10:32AM 32.4500 -93.8117 32° Northeast 492 566 31,500 660 Climbing Fort Worth Center
10:33AM 32.5644 -93.7283 32° Northeast 487 560 32,200 720 Climbing Fort Worth Center
10:34AM 32.6811 -93.6472 30° Northeast 482 555 33,000 600 Climbing Fort Worth Center
10:35AM 32.7953 -93.5633 32° Northeast 482 555 33,500 480 Climbing Fort Worth Center
10:36AM 32.9097 -93.4817 31° Northeast 482 555 34,000 540 Climbing Fort Worth Center
10:37AM 33.0281 -93.3972 31° Northeast 482 555 34,600 480 Climbing Fort Worth Center
10:38AM 33.1403 -93.3153 31° Northeast 482 555 35,000 180 Climbing Fort Worth Center
10:39AM 33.2544 -93.2353 30° Northeast 477 549 35,000  Level Fort Worth Center
10:41AM 33.5072 -93.0528 31° Northeast 490 564 35,000  Level Memphis Center
10:42AM 33.6194 -92.9714 31° Northeast 478 550 35,000  Level Memphis Center
10:43AM 33.7297 -92.8900 32° Northeast 473 544 35,000  Level Memphis Center
10:44AM 33.8442 -92.8056 31° Northeast 473 544 35,000  Level Memphis Center
10:45AM 33.9544 -92.7136 35° Northeast 473 544 35,000  Level Memphis Center
10:46AM 34.0503 -92.6008 44° Northeast 473 544 35,000  Level Memphis Center
10:47AM 34.1419 -92.4903 45° Northeast 468 539 35,000  Level Memphis Center
10:48AM 34.2378 -92.3797 44° Northeast 468 539 35,000  Level Memphis Center
10:49AM 34.3356 -92.2636 44° Northeast 468 539 35,000  Level Memphis Center
10:50AM 34.4333 -92.1525 43° Northeast 468 539 35,000  Level Memphis Center
10:51AM 34.5286 -92.0411 44° Northeast 468 539 35,000  Level Memphis Center
10:52AM 34.6242 -91.9269 44° Northeast 468 539 35,000  Level Memphis Center
10:53AM 34.7214 -91.8150 43° Northeast 468 539 35,000  Level Memphis Center
10:54AM 34.8103 -91.7128 43° Northeast 468 539 35,000  Level Memphis Center
10:55AM 34.9117 -91.5828 46° Northeast 468 539 35,000  Level Memphis Center
10:56AM 35.0086 -91.4675 44° Northeast 475 547 35,000  Level Memphis Center
10:57AM 35.1078 -91.3572 42° Northeast 480 552 35,000  Level Memphis Center
10:58AM 35.2025 -91.2389 46° Northeast 480 552 35,000  Level Memphis Center
10:59AM 35.2992 -91.1228 44° Northeast 480 552 35,000  Level Memphis Center
11:00AM 35.3958 -91.0092 44° Northeast 480 552 35,000  Level Memphis Center
11:01AM 35.4903 -90.8900 46° Northeast 485 558 35,000  Level Memphis Center
11:02AM 35.5825 -90.7681 47° Northeast 485 558 35,000  Level Memphis Center
11:03AM 35.6767 -90.6458 46° Northeast 485 558 35,000  Level Memphis Center
11:04AM 35.7622 -90.5233 49° Northeast 478 550 35,000  Level Memphis Center
11:05AM 35.8564 -90.4031 46° Northeast 478 550 35,000  Level Memphis Center
11:06AM 35.9500 -90.2775 47° Northeast 483 556 35,000  Level Memphis Center
11:07AM 36.0417 -90.1567 47° Northeast 483 556 35,000  Level Memphis Center
11:08AM 36.1331 -90.0358 47° Northeast 483 556 35,000  Level Memphis Center
11:09AM 36.2267 -89.9144 46° Northeast 478 550 35,000 120 Level Memphis Center
11:10AM 36.3200 -89.7878 48° Northeast 478 550 35,300 540 Climbing Memphis Center
11:11AM 36.4111 -89.6686 46° Northeast 473 544 36,100 720 Climbing Memphis Center
11:12AM 36.5042 -89.5464 47° Northeast 473 544 36,800 420 Climbing Memphis Center
11:13AM 36.5969 -89.4214 47° Northeast 473 544 37,000 60 Climbing Memphis Center
11:14AM 36.6836 -89.2961 49° Northeast 473 544 37,000  Level Memphis Center
11:15AM 36.7639 -89.1889 47° Northeast 473 544 37,000  Level Memphis Center
11:16AM 36.8542 -89.0656 48° Northeast 473 544 37,000  Level Memphis Center
11:17AM 36.9406 -88.9450 48° Northeast 473 544 37,000  Level Memphis Center
11:18AM 37.0306 -88.8186 48° Northeast 473 544 37,000  Level Memphis Center
11:19AM 37.1208 -88.6972 47° Northeast 473 544 37,000  Level Memphis Center
11:20AM 37.2622 -88.4911 49° Northeast 479 551 37,000  Level Indianapolis Center
11:21AM 37.3522 -88.3636 48° Northeast 483 556 37,000  Level Indianapolis Center
11:22AM 37.4447 -88.2347 48° Northeast 489 563 37,000  Level Indianapolis Center
11:23AM 37.5361 -88.1047 48° Northeast 490 564 37,000  Level Indianapolis Center
11:24AM 37.6269 -87.9753 48° Northeast 488 562 37,100  Climbing Indianapolis Center
11:25AM 37.7156 -87.8489 48° Northeast 479 551 37,000 -60 Descending Indianapolis Center
11:26AM 37.8167 -87.7042 48° Northeast 474 545 37,000  Level Indianapolis Center
11:27AM 37.9033 -87.5786 49° Northeast 473 544 37,000  Level Indianapolis Center
11:28AM 37.9906 -87.4536 48° Northeast 472 543 37,000  Level Indianapolis Center
11:29AM 38.0781 -87.3269 49° Northeast 474 545 37,000  Level Indianapolis Center
11:31AM 38.1656 -87.1983 49° Northeast 480 552 37,000  Level Indianapolis Center
11:32AM 38.2586 -87.0639 49° Northeast 485 558 37,000  Level Indianapolis Center
11:33AM 38.3458 -86.9347 49° Northeast 484 557 37,000  Level Indianapolis Center
11:34AM 38.4428 -86.7900 49° Northeast 490 564 37,000  Level Indianapolis Center
11:35AM 38.5311 -86.6594 49° Northeast 486 559 37,000  Level Indianapolis Center
11:36AM 38.6200 -86.5297 49° Northeast 485 558 37,000  Level Indianapolis Center
11:37AM 38.7078 -86.3992 49° Northeast 482 555 37,000  Level Indianapolis Center
11:38AM 38.8111 -86.2425 50° Northeast 479 551 37,000  Level Indianapolis Center
11:39AM 38.8975 -86.1117 50° Northeast 479 551 37,000  Level Indianapolis Center
11:40AM 38.9889 -85.9733 50° Northeast 479 551 37,000  Level Indianapolis Center
11:41AM 39.0753 -85.8442 49° Northeast 480 552 37,000  Level Indianapolis Center
11:42AM 39.1600 -85.7142 50° Northeast 477 549 37,000  Level Indianapolis Center
11:43AM 39.2453 -85.5842 50° Northeast 479 551 37,000  Level Indianapolis Center
11:44AM 39.3408 -85.4689 43° Northeast 478 550 37,000  Level Indianapolis Center
11:45AM 39.4603 -85.3372 40° Northeast 475 547 37,000  Level Indianapolis Center
11:46AM 39.5603 -85.2283 40° Northeast 472 543 37,000  Level Indianapolis Center
11:47AM 39.6581 -85.1194 41° Northeast 469 540 37,000  Level Indianapolis Center
11:48AM 39.7583 -85.0131 39° Northeast 467 537 37,000  Level Indianapolis Center
11:49AM 39.8531 -84.8725 49° Northeast 470 541 37,000  Level Indianapolis Center
11:50AM 39.9231 -84.7275 58° Northeast 467 537 37,000 -60 Level Indianapolis Center
11:51AM 39.9886 -84.5808 60° Northeast 464 534 36,900 -60 Descending Indianapolis Center
11:52AM 40.0542 -84.4336 60° Northeast 463 533 36,900  Level Indianapolis Center
11:53AM 40.1183 -84.2853 60° Northeast 463 533 37,000  Climbing Indianapolis Center
11:54AM 40.1833 -84.1369 60° Northeast 464 534 36,900  Descending Indianapolis Center
11:55AM 40.2478 -83.9875 60° Northeast 465 535 37,000  Climbing Indianapolis Center
11:56AM 40.3225 -83.8139 61° Northeast 463 533 37,000 -60 Level Indianapolis Center
11:57AM 40.3858 -83.6650 61° Northeast 462 532 36,900  Descending Indianapolis Center
11:58AM 40.4500 -83.5164 60° Northeast 461 531 37,000  Climbing Indianapolis Center
11:59AM 40.5136 -83.3650 61° Northeast 466 536 36,900  Descending Indianapolis Center
12:01PM 40.5772 -83.2136 61° Northeast 468 539 37,000  Climbing Indianapolis Center
12:02PM 40.6408 -83.0556 62° Northeast 466 536 37,000  Level Indianapolis Center
12:03PM 40.6919 -82.8950 67° East 471 542 37,000  Level Indianapolis Center
12:04PM 40.7447 -82.7347 66° East 473 544 37,000  Level Indianapolis Center
12:05PM 40.7978 -82.5739 66° East 474 545 37,000  Level Indianapolis Center
12:06PM 40.8500 -82.4131 67° East 475 547 37,000  Level Indianapolis Center
12:07PM 40.9117 -82.2253 66° East 473 544 37,000  Level Indianapolis Center
12:08PM 40.9631 -82.0642 67° East 473 544 37,000  Level Indianapolis Center
12:09PM 41.0144 -81.9033 67° East 474 545 37,000  Level Indianapolis Center
12:10PM 41.0650 -81.7419 67° East 475 547 37,000  Level Indianapolis Center
12:11PM 41.1369 -81.5261 66° East 474 545 37,000  Level Cleveland Center
12:12PM 41.1839 -81.3639 69° East 474 545 37,000  Level Cleveland Center
12:13PM 41.2369 -81.1989 67° East 474 545 37,000  Level Cleveland Center
12:14PM 41.2878 -81.0364 67° East 474 545 37,000  Level Cleveland Center
12:15PM 41.3383 -80.8764 67° East 474 545 37,100  Climbing Cleveland Center
12:16PM 41.3886 -80.7106 68° East 479 551 37,000 -60 Descending Cleveland Center
12:17PM 41.4367 -80.5500 68° East 470 541 37,000  Level Cleveland Center
12:18PM 41.4867 -80.3892 67° East 470 541 37,000  Level Cleveland Center
12:19PM 41.5342 -80.2392 67° East 475 547 37,000  Level Cleveland Center
12:20PM 41.5817 -80.0725 69° East 475 547 37,000  Level Cleveland Center
12:21PM 41.6369 -79.8942 67° East 475 547 37,000  Level Cleveland Center
12:22PM 41.6797 -79.7381 70° East 475 547 37,000  Level Cleveland Center
12:23PM 41.7344 -79.5564 68° East 480 552 37,000  Level Cleveland Center
12:24PM 41.7850 -79.3886 68° East 475 547 37,000  Level Cleveland Center
12:25PM 41.8331 -79.2233 69° East 475 547 37,000  Level Cleveland Center
12:26PM 41.8789 -79.0578 70° East 475 547 37,000  Level Cleveland Center
12:27PM 41.9289 -78.8919 68° East 475 547 37,000  Level Cleveland Center
12:28PM 41.9761 -78.7231 69° East 475 547 37,000  Level Cleveland Center
12:29PM 42.0214 -78.5594 70° East 475 547 37,000  Level Cleveland Center
12:30PM 42.0664 -78.3986 69° East 469 540 37,000  Level Cleveland Center
12:31PM 42.1131 -78.2264 70° East 469 540 37,000  Level Cleveland Center
12:32PM 42.1617 -78.0619 68° East 474 545 37,000  Level Cleveland Center
12:33PM 42.2078 -77.8919 70° East 474 545 37,000  Level Cleveland Center
12:34PM 42.2539 -77.7217 70° East 474 545 37,000  Level Cleveland Center
12:35PM 42.2994 -77.5511 70° East 474 545 37,000  Level Cleveland Center
12:37PM 42.3972 -77.1839 70° East 476 548 37,000  Level Boston Center
12:38PM 42.4397 -77.0069 72° East 481 554 37,000  Level Boston Center
12:39PM 42.4581 -76.8619 80° East 481 554 37,000  Level Boston Center
12:40PM 42.4831 -76.6411 81° East 491 565 37,000  Level Boston Center
12:41PM 42.5025 -76.4536 82° East 496 571 37,000  Level Boston Center
12:42PM 42.5214 -76.2689 82° East 501 577 37,000  Level Boston Center
12:43PM 42.5394 -76.1036 82° East 494 568 37,000  Level Boston Center
12:44PM 42.5556 -75.9186 83° East 494 568 37,000  Level Boston Center
12:45PM 42.5736 -75.7333 82° East 499 574 37,000 -60 Level Boston Center
12:46PM 42.5933 -75.5511 82° East 499 574 36,900 -60 Descending Boston Center
12:47PM 42.6086 -75.3656 84° East 499 574 36,900  Level Boston Center
12:48PM 42.6278 -75.1831 82° East 499 574 36,900  Level Boston Center
12:49PM 42.6425 -75.0003 84° East 494 568 37,000  Climbing Boston Center
12:50PM 42.6592 -74.8144 83° East 494 568 37,000 -60 Level Boston Center
12:51PM 42.6772 -74.6317 82° East 494 568 36,900 -60 Descending Boston Center
12:52PM 42.6911 -74.4486 84° East 494 568 36,900  Level Boston Center
12:53PM 42.7089 -74.2625 83° East 494 568 37,000  Climbing Boston Center
12:54PM 42.7222 -74.0764 84° East 494 568 37,000  Level Boston Center
12:55PM 42.7392 -73.8875 83° East 499 574 37,000  Level Boston Center
12:56PM 42.7336 -73.6611 92° East 499 574 37,000 -240 Level Boston Center
12:57PM 42.7125 -73.4658 98° East 499 574 36,600 -1,740 Descending Boston Center
12:58PM 42.6953 -73.2792 97° East 504 580 33,600 -2,640 Descending Boston Center
12:59PM 42.6778 -73.1206 98° East 509 586 31,400 -2,700 Descending Boston Center
01:00PM 42.6497 -72.8775 99° East 530 610 28,300 -2,700 Descending Boston Center
01:01PM 42.6272 -72.6969 100° East 517 595 26,100 -2,640 Descending Boston Center
01:02PM 42.6025 -72.5106 100° East 499 574 23,100 -2,700 Descending Boston Center
01:03PM 42.5817 -72.3331 99° East 493 567 20,800 -2,100 Descending Boston Center
01:04PM 42.5606 -72.1781 100° East 451 519 19,000 -2,100 Descending Boston Center
01:05PM 42.5414 -72.0006 98° East 429 494 16,700 -2,160 Descending Boston Center
01:06PM 42.5281 -71.8653 98° East 419 482 14,700 -2,700 Descending Boston Center
01:07PM 42.5125 -71.7050 97° East 399 459 11,300 -2,040 Descending Boston Center
01:09PM 42.5000 -71.5500 96° East 350 403 10,400 -1,080 Descending KA90
01:10PM 42.4833 -71.4333 101° East 313 360 9,100 -960 Descending KA90
01:11PM 42.4833 -71.3167 90° East 306 352 8,500 -1,080 Descending KA90
01:12PM 42.4667 -71.2000 101° East 297 342 7,000 -720 Descending KA90
01:13PM 42.4500 -71.1000 103° East 246 283 7,000 -60 Level KA90
01:14PM 42.4333 -71.0167 105° East 250 288 6,900 -540 Descending KA90
01:15PM 42.3833 -70.9667 144° Southeast 234 269 6,000 -480 Descending KA90
01:16PM 42.3167 -70.9333 160° South 233 268 6,000 -480 Level KA90
01:17PM 42.2667 -70.9500 194° South 216 249 5,100 -780 Descending KA90
01:18PM 42.2167 -70.9833 206° Southwest 216 249 4,600 -600 Descending KA90
01:19PM 42.1500 -71.0000 191° South 221 254 4,000 -300 Descending KA90
01:20PM 42.1500 -71.0667 270° West 225 259 4,000  Level KA90